createdAt,value
2023-04-15T00:01:04.117Z,2.57
2023-04-15T00:03:30.912Z,2.70
2023-04-15T00:06:02.040Z,3.30
2023-04-15T00:08:29.962Z,3.33
2023-04-15T00:10:56.506Z,2.90
2023-04-15T00:13:26.304Z,2.60
2023-04-15T00:15:52.730Z,2.53
2023-04-15T00:18:19.117Z,2.83
2023-04-15T00:20:48.370Z,2.50
2023-04-15T00:23:17.888Z,2.83
2023-04-15T00:25:44.880Z,2.70
2023-04-15T00:28:15.186Z,2.67
2023-04-15T00:30:41.663Z,2.80
2023-04-15T00:33:08.578Z,2.95
2023-04-15T00:35:44.619Z,2.90
2023-04-15T00:38:11.528Z,2.80
2023-04-15T00:40:41.556Z,2.83
2023-04-15T00:43:11.133Z,2.72
2023-04-15T00:45:38.692Z,3.20
2023-04-15T00:48:11.727Z,3.00
2023-04-15T00:50:38.290Z,3.27
2023-04-15T00:55:48.647Z,3.15
2023-04-15T00:58:18.398Z,3.10
2023-04-15T01:00:47.374Z,2.55
2023-04-15T01:03:15.513Z,2.87
2023-04-15T01:05:45.980Z,3.10
2023-04-15T01:08:16.865Z,2.95
2023-04-15T01:10:46.566Z,2.90
2023-04-15T01:13:15.788Z,3.33
2023-04-15T01:15:42.719Z,2.53
2023-04-15T01:18:13.278Z,2.67
2023-04-15T01:20:49.205Z,3.38
2023-04-15T01:23:16.907Z,2.92
2023-04-15T01:25:47.003Z,2.95
2023-04-15T01:28:16.914Z,2.97
2023-04-15T01:30:51.154Z,2.78
2023-04-15T01:33:17.637Z,2.60
2023-04-15T01:35:50.944Z,2.63
2023-04-15T01:38:20.085Z,2.97
2023-04-15T01:40:46.424Z,2.43
2023-04-15T01:43:13.284Z,2.45
2023-04-15T01:45:39.656Z,2.58
2023-04-15T01:48:07.029Z,2.65
2023-04-15T01:50:33.501Z,2.72
2023-04-15T01:53:08.914Z,2.73
2023-04-15T01:55:35.359Z,3.00
2023-04-15T02:00:48.300Z,3.08
2023-04-15T02:03:14.714Z,2.25
2023-04-15T02:05:41.122Z,2.93
2023-04-15T02:08:10.665Z,2.83
2023-04-15T02:10:39.907Z,3.03
2023-04-15T02:13:13.685Z,2.40
2023-04-15T02:16:00.390Z,2.95
2023-04-15T02:18:27.177Z,2.90
2023-04-15T02:23:36.712Z,2.90
2023-04-15T02:26:03.094Z,3.17
2023-04-15T02:28:29.514Z,2.58
2023-04-15T02:30:57.781Z,2.77
2023-04-15T02:33:27.113Z,2.97
2023-04-15T02:35:53.690Z,2.85
2023-04-15T02:38:20.266Z,3.08
2023-04-15T02:40:49.833Z,2.83
2023-04-15T02:43:19.458Z,2.53
2023-04-15T02:45:48.846Z,3.20
2023-04-15T02:48:21.379Z,3.53
2023-04-15T02:50:48.222Z,2.67
2023-04-15T02:53:22.279Z,3.22
2023-04-15T02:55:48.680Z,2.77
2023-04-15T02:58:15.285Z,2.72
2023-04-15T03:00:41.911Z,3.30
2023-04-15T03:03:12.046Z,2.60
2023-04-15T03:05:39.520Z,3.38
2023-04-15T03:08:11.823Z,2.83
2023-04-15T03:10:38.215Z,2.53
2023-04-15T03:13:07.368Z,2.95
2023-04-15T03:15:36.946Z,3.20
2023-04-15T03:18:05.693Z,2.95
2023-04-15T03:20:32.067Z,3.30
2023-04-15T03:23:01.250Z,3.08
2023-04-15T03:25:27.632Z,3.25
2023-04-15T03:27:58.317Z,2.95
2023-04-15T03:30:24.763Z,2.88
2023-04-15T03:32:51.610Z,2.67
2023-04-15T03:35:18.300Z,3.22
2023-04-15T03:37:51.818Z,2.88
2023-04-15T03:40:42.647Z,3.45
2023-04-15T03:43:12.323Z,2.83
2023-04-15T03:45:38.794Z,3.23
2023-04-15T03:48:16.432Z,2.70
2023-04-15T03:50:52.133Z,2.72
2023-04-15T03:53:22.624Z,3.30
2023-04-15T03:55:50.648Z,3.42
2023-04-15T03:58:19.383Z,3.10
2023-04-15T04:00:45.832Z,3.40
2023-04-15T04:03:12.824Z,3.83
2023-04-15T04:05:45.189Z,3.47
2023-04-15T04:08:15.333Z,3.33
2023-04-15T04:10:42.771Z,3.13
2023-04-15T04:13:09.162Z,3.00
2023-04-15T04:15:35.665Z,3.58
2023-04-15T04:18:10.577Z,3.78
2023-04-15T04:20:37.143Z,3.03
2023-04-15T04:23:07.467Z,2.90
2023-04-15T04:25:37.586Z,3.80
2023-04-15T04:28:04.409Z,3.83
2023-04-15T04:30:34.612Z,3.17
2023-04-15T04:33:01.130Z,3.70
2023-04-15T04:35:27.667Z,3.57
2023-04-15T04:37:58.148Z,3.60
2023-04-15T04:40:24.589Z,4.05
2023-04-15T04:42:51.005Z,3.85
2023-04-15T04:45:19.068Z,3.53
2023-04-15T04:47:48.225Z,3.83
2023-04-15T04:50:14.764Z,3.92
2023-04-15T04:52:46.465Z,3.50
2023-04-15T04:55:13.199Z,3.97
2023-04-15T04:57:39.709Z,3.38
2023-04-15T05:00:16.399Z,3.57
2023-04-15T05:02:44.137Z,3.92
2023-04-15T05:05:13.053Z,3.80
2023-04-15T05:07:42.694Z,4.00
2023-04-15T05:10:10.868Z,3.67
2023-04-15T05:12:38.926Z,3.23
2023-04-15T05:15:09.605Z,3.67
2023-04-15T05:17:39.740Z,4.20
2023-04-15T05:20:09.653Z,3.65
2023-04-15T05:22:39.844Z,3.58
2023-04-15T05:25:08.658Z,3.87
2023-04-15T05:27:35.121Z,3.70
2023-04-15T05:30:16.196Z,3.95
2023-04-15T05:32:45.660Z,3.20
2023-04-15T05:35:16.155Z,3.45
2023-04-15T05:37:42.544Z,3.40
2023-04-15T05:40:11.657Z,3.70
2023-04-15T05:42:41.256Z,3.30
2023-04-15T05:45:16.926Z,3.45
2023-04-15T05:47:43.339Z,4.07
2023-04-15T05:50:10.216Z,3.27
2023-04-15T05:52:41.080Z,3.85
2023-04-15T05:55:07.816Z,3.75
2023-04-15T05:57:34.201Z,3.20
2023-04-15T06:00:04.801Z,3.58
2023-04-15T06:02:31.569Z,3.80
2023-04-15T06:04:58.210Z,3.80
2023-04-15T06:07:32.968Z,4.20
2023-04-15T06:09:59.285Z,3.83
2023-04-15T06:12:31.748Z,3.95
2023-04-15T06:15:01.325Z,3.93
2023-04-15T06:17:31.193Z,3.83
2023-04-15T06:20:00.197Z,4.00
2023-04-15T06:22:27.685Z,4.00
2023-04-15T06:24:59.989Z,4.40
2023-04-15T06:27:26.338Z,4.20
2023-04-15T06:29:52.752Z,4.32
2023-04-15T06:32:23.332Z,4.03
2023-04-15T06:34:49.714Z,4.15
2023-04-15T06:37:16.465Z,4.40
2023-04-15T06:39:43.883Z,4.33
2023-04-15T06:42:13.982Z,4.53
2023-04-15T06:44:40.691Z,4.43
2023-04-15T06:47:10.284Z,5.05
2023-04-15T06:49:40.407Z,4.88
2023-04-15T06:54:47.134Z,4.50
2023-04-15T06:57:21.474Z,5.30
2023-04-15T06:59:47.882Z,5.15
2023-04-15T07:02:20.977Z,4.93
2023-04-15T07:04:47.623Z,4.90
2023-04-15T07:07:22.627Z,4.60
2023-04-15T07:09:53.679Z,5.70
2023-04-15T07:12:20.764Z,5.50
2023-04-15T07:14:53.412Z,5.63
2023-04-15T07:17:19.797Z,4.70
2023-04-15T07:19:49.933Z,4.70
2023-04-15T07:22:16.983Z,5.25
2023-04-15T07:24:43.367Z,4.53
2023-04-15T07:27:13.776Z,5.40
2023-04-15T07:29:43.119Z,5.50
2023-04-15T07:32:18.155Z,5.03
2023-04-15T07:34:44.847Z,4.80
2023-04-15T07:37:11.519Z,4.85
2023-04-15T07:39:42.653Z,4.63
2023-04-15T07:42:09.505Z,4.20
2023-04-15T07:44:36.230Z,3.90
2023-04-15T07:47:06.924Z,3.50
2023-04-15T07:49:33.375Z,3.40
2023-04-15T07:52:00.110Z,3.13
2023-04-15T07:54:30.090Z,3.10
2023-04-15T07:56:56.456Z,2.70
2023-04-15T07:59:22.874Z,3.35
2023-04-15T08:01:50.273Z,2.60
2023-04-15T08:04:24.607Z,3.20
2023-04-15T08:06:57.959Z,3.37
2023-04-15T08:09:24.300Z,2.92
2023-04-15T08:11:53.642Z,2.75
2023-04-15T08:14:20.707Z,2.65
2023-04-15T08:16:49.883Z,2.88
2023-04-15T08:19:16.629Z,2.43
2023-04-15T08:21:45.908Z,2.78
2023-04-15T08:24:12.909Z,2.40
2023-04-15T08:26:39.247Z,2.15
2023-04-15T08:29:14.003Z,1.98
2023-04-15T08:31:40.538Z,2.23
2023-04-15T08:34:12.338Z,2.45
2023-04-15T08:36:43.152Z,2.03
2023-04-15T08:42:08.531Z,2.10
2023-04-15T08:44:45.908Z,1.67
2023-04-15T08:47:14.892Z,1.50
2023-04-15T08:49:45.485Z,1.80
2023-04-15T08:52:12.345Z,1.98
2023-04-15T08:54:42.452Z,2.20
2023-04-15T08:57:12.658Z,2.13
2023-04-15T08:59:41.877Z,2.10
2023-04-15T09:02:09.256Z,2.60
2023-04-15T09:04:35.662Z,2.60
2023-04-15T09:07:02.075Z,2.22
2023-04-15T09:09:32.630Z,2.00
2023-04-15T09:12:02.266Z,2.80
2023-04-15T09:17:16.500Z,2.45
2023-04-15T09:19:46.032Z,2.40
2023-04-15T09:25:22.640Z,1.58
2023-04-15T09:27:50.409Z,2.22
2023-04-15T09:30:24.959Z,2.00
2023-04-15T09:32:55.683Z,2.13
2023-04-15T09:38:14.539Z,1.77
2023-04-15T09:40:42.477Z,1.70
2023-04-15T09:43:20.759Z,1.90
2023-04-15T09:46:14.246Z,1.88
2023-04-15T09:48:40.781Z,1.43
2023-04-15T09:51:07.168Z,1.95
2023-04-15T09:53:39.503Z,2.53
2023-04-15T09:56:10.577Z,2.00
2023-04-15T09:58:41.625Z,1.92
2023-04-15T10:01:09.177Z,1.40
2023-04-15T10:03:37.454Z,1.20
2023-04-15T10:06:09.447Z,1.20
2023-04-15T10:08:35.801Z,1.52
2023-04-15T10:11:06.838Z,2.00
2023-04-15T10:13:38.025Z,1.33
2023-04-15T10:16:29.478Z,1.10
2023-04-15T10:19:02.308Z,1.20
2023-04-15T10:21:31.078Z,1.42
2023-04-15T10:24:03.282Z,1.05
2023-04-15T10:26:33.286Z,1.37
2023-04-15T10:29:04.740Z,1.58
2023-04-15T10:31:31.717Z,1.48
2023-04-15T10:34:06.812Z,1.70
2023-04-15T10:36:33.458Z,1.92
2023-04-15T10:39:02.370Z,1.13
2023-04-15T10:41:34.393Z,1.60
2023-04-15T10:44:05.422Z,1.20
2023-04-15T10:46:40.410Z,1.42
2023-04-15T10:49:24.114Z,1.60
2023-04-15T10:51:59.735Z,1.10
2023-04-15T10:54:31.778Z,1.30
2023-04-15T10:57:03.961Z,1.38
2023-04-15T10:59:41.830Z,1.15
2023-04-15T11:02:08.681Z,1.45
2023-04-15T11:04:56.179Z,0.93
2023-04-15T11:07:49.856Z,0.95
2023-04-15T11:13:32.227Z,1.42
2023-04-15T11:16:20.153Z,0.85
2023-04-15T11:18:55.753Z,1.00
2023-04-15T11:21:27.878Z,1.00
2023-04-15T11:23:57.044Z,0.93
2023-04-15T11:26:29.350Z,1.10
2023-04-15T11:28:59.709Z,1.10
2023-04-15T11:34:22.910Z,0.80
2023-04-15T11:36:56.685Z,1.27
2023-04-15T11:39:25.965Z,1.33
2023-04-15T11:41:54.931Z,1.35
2023-04-15T11:44:21.533Z,0.93
2023-04-15T11:46:47.920Z,0.95
2023-04-15T11:49:31.201Z,0.68
2023-04-15T11:51:58.092Z,0.93
2023-04-15T11:54:27.143Z,1.45
2023-04-15T11:56:57.312Z,1.03
2023-04-15T11:59:28.149Z,0.95
2023-04-15T12:02:17.856Z,0.90
2023-04-15T12:04:44.426Z,1.30
2023-04-15T12:07:14.500Z,1.10
2023-04-15T12:09:41.207Z,0.90
2023-04-15T12:12:07.992Z,0.80
2023-04-15T12:14:42.787Z,0.80
2023-04-15T12:17:10.624Z,0.80
2023-04-15T12:19:41.423Z,0.73
2023-04-15T12:22:13.318Z,0.63
2023-04-15T12:24:51.551Z,0.60
2023-04-15T12:27:17.959Z,0.50
2023-04-15T12:29:45.070Z,0.40
2023-04-15T12:32:16.254Z,0.50
2023-04-15T12:34:49.942Z,0.73
2023-04-15T12:37:19.494Z,0.70
2023-04-15T12:39:52.413Z,0.50
2023-04-15T12:42:22.551Z,0.50
2023-04-15T12:44:48.997Z,0.52
2023-04-15T12:47:18.480Z,0.50
2023-04-15T12:49:49.540Z,0.93
2023-04-15T12:52:19.082Z,0.77
2023-04-15T12:54:48.430Z,0.93
2023-04-15T12:57:22.134Z,0.50
2023-04-15T12:59:51.410Z,0.90
2023-04-15T13:02:26.485Z,0.60
2023-04-15T13:04:52.984Z,0.43
2023-04-15T13:07:19.437Z,0.30
2023-04-15T13:09:48.555Z,0.47
2023-04-15T13:12:17.715Z,0.60
2023-04-15T13:14:44.215Z,0.50
2023-04-15T13:17:15.620Z,0.73
2023-04-15T13:19:42.577Z,0.65
2023-04-15T13:22:09.149Z,0.50
2023-04-15T13:24:38.558Z,0.60
2023-04-15T13:27:08.288Z,0.60
2023-04-15T13:29:35.828Z,0.70
2023-04-15T13:32:09.819Z,1.67
2023-04-15T13:34:36.203Z,0.80
2023-04-15T13:37:11.678Z,0.70
2023-04-15T13:39:38.165Z,0.80
2023-04-15T13:42:07.926Z,0.60
2023-04-15T13:44:37.149Z,0.73
2023-04-15T13:47:03.916Z,0.50
2023-04-15T13:49:33.472Z,0.50
2023-04-15T13:51:59.865Z,1.10
2023-04-15T13:54:37.875Z,0.70
2023-04-15T13:57:06.776Z,0.45
2023-04-15T13:59:47.573Z,0.50
2023-04-15T14:02:16.358Z,0.60
2023-04-15T14:04:45.632Z,0.30
2023-04-15T14:07:11.948Z,0.40
2023-04-15T14:09:43.610Z,0.30
2023-04-15T14:12:13.139Z,0.40
2023-04-15T14:14:46.905Z,0.40
2023-04-15T14:17:16.278Z,1.85
2023-04-15T14:19:42.676Z,1.10
2023-04-15T14:22:11.990Z,0.40
2023-04-15T14:24:38.309Z,0.50
2023-04-15T14:27:04.741Z,0.33
2023-04-15T14:29:40.207Z,0.70
2023-04-15T14:32:12.090Z,1.65
2023-04-15T14:34:42.933Z,0.63
2023-04-15T14:37:09.330Z,0.90
2023-04-15T14:39:42.398Z,0.60
2023-04-15T14:42:08.753Z,0.88
2023-04-15T14:44:35.427Z,0.50
2023-04-15T14:47:04.814Z,0.60
2023-04-15T14:49:34.989Z,0.80
2023-04-15T14:52:04.690Z,0.40
2023-04-15T14:54:31.035Z,0.75
2023-04-15T14:56:57.704Z,0.80
2023-04-15T14:59:24.070Z,0.40
2023-04-15T15:01:53.191Z,0.60
2023-04-15T15:04:23.051Z,1.03
2023-04-15T15:06:52.102Z,0.52
2023-04-15T15:09:19.976Z,0.45
2023-04-15T15:11:50.939Z,0.38
2023-04-15T15:14:21.768Z,0.60
2023-04-15T15:16:48.558Z,0.47
2023-04-15T15:19:14.936Z,0.70
2023-04-15T15:21:49.828Z,0.57
2023-04-15T15:24:16.333Z,1.20
2023-04-15T15:26:45.035Z,0.90
2023-04-15T15:29:18.660Z,0.47
2023-04-15T15:31:47.623Z,0.75
2023-04-15T15:34:19.429Z,0.35
2023-04-15T15:36:48.466Z,0.73
2023-04-15T15:39:16.283Z,0.32
2023-04-15T15:41:42.633Z,0.40
2023-04-15T15:44:09.025Z,0.50
2023-04-15T15:49:21.575Z,0.30
2023-04-15T15:51:49.766Z,0.40
2023-04-15T15:54:16.114Z,0.40
2023-04-15T15:56:43.475Z,0.47
2023-04-15T15:59:12.852Z,0.43
2023-04-15T16:01:39.998Z,0.47
2023-04-15T16:04:09.438Z,1.10
2023-04-15T16:06:39.015Z,0.40
2023-04-15T16:09:12.695Z,0.70
2023-04-15T16:11:41.803Z,0.60
2023-04-15T16:14:10.510Z,0.55
2023-04-15T16:16:41.495Z,0.90
2023-04-15T16:19:07.861Z,0.47
2023-04-15T16:24:23.120Z,0.70
2023-04-15T16:26:53.529Z,0.52
2023-04-15T16:29:22.876Z,0.70
2023-04-15T16:31:52.552Z,0.30
2023-04-15T16:34:22.079Z,0.50
2023-04-15T16:36:48.757Z,0.70
2023-04-15T16:39:19.183Z,0.40
2023-04-15T16:41:51.674Z,0.43
2023-04-15T16:44:20.940Z,0.80
2023-04-15T16:46:51.875Z,0.65
2023-04-15T16:49:20.404Z,0.80
2023-04-15T16:51:47.004Z,0.45
2023-04-15T16:56:58.814Z,0.40
2023-04-15T16:59:28.400Z,0.30
2023-04-15T17:01:55.530Z,1.05
2023-04-15T17:04:25.798Z,0.40
2023-04-15T17:06:52.246Z,0.50
2023-04-15T17:09:18.780Z,0.30
2023-04-15T17:11:47.915Z,0.30
2023-04-15T17:14:17.160Z,0.35
2023-04-15T17:16:43.694Z,0.40
2023-04-15T17:19:13.211Z,0.30
2023-04-15T17:21:42.394Z,0.80
2023-04-15T17:24:14.088Z,0.50
2023-04-15T17:26:47.116Z,0.47
2023-04-15T17:29:16.832Z,0.50
2023-04-15T17:31:46.243Z,0.65
2023-04-15T17:34:14.603Z,0.57
2023-04-15T17:36:42.203Z,0.52
2023-04-15T17:39:11.903Z,0.80
2023-04-15T17:41:38.318Z,0.47
2023-04-15T17:44:07.039Z,0.30
2023-04-15T17:46:36.845Z,0.67
2023-04-15T17:49:09.241Z,0.98
2023-04-15T17:51:38.631Z,0.38
2023-04-15T17:54:05.700Z,0.30
2023-04-15T17:56:33.992Z,0.50
2023-04-15T17:59:03.467Z,0.40
2023-04-15T18:01:32.455Z,0.50
2023-04-15T18:03:59.368Z,0.95
2023-04-15T18:06:27.113Z,0.70
2023-04-15T18:08:53.543Z,0.40
2023-04-15T18:11:19.914Z,0.40
2023-04-15T18:13:48.798Z,1.00
2023-04-15T18:16:15.343Z,1.38
2023-04-15T18:18:44.316Z,0.60
2023-04-15T18:21:13.854Z,0.65
2023-04-15T18:23:40.572Z,0.67
2023-04-15T18:26:09.783Z,0.50
2023-04-15T18:28:39.792Z,0.50
2023-04-15T18:31:06.537Z,1.98
2023-04-15T18:33:36.283Z,0.50
2023-04-15T18:36:03.051Z,0.23
2023-04-15T18:38:29.403Z,0.55
2023-04-15T18:40:59.449Z,0.63
2023-04-15T18:43:28.688Z,0.43
2023-04-15T18:45:55.137Z,0.50
2023-04-15T18:48:24.279Z,1.03
2023-04-15T18:50:54.131Z,0.38
2023-04-15T18:56:07.378Z,0.30
2023-04-15T18:59:09.858Z,0.40
2023-04-15T19:01:26.456Z,0.30
2023-04-15T19:03:59.647Z,0.47
2023-04-15T19:06:27.443Z,0.38
2023-04-15T19:09:00.585Z,0.30
2023-04-15T19:11:26.997Z,0.30
2023-04-15T19:13:59.263Z,0.30
2023-04-15T19:16:28.577Z,0.55
2023-04-15T19:19:02.555Z,0.38
2023-04-15T19:21:30.496Z,0.50
2023-04-15T19:24:05.392Z,0.45
2023-04-15T19:26:31.908Z,0.37
2023-04-15T19:28:58.949Z,0.28
2023-04-15T19:31:29.489Z,0.30
2023-04-15T19:33:56.691Z,0.50
2023-04-15T19:36:23.249Z,0.50
2023-04-15T19:38:53.649Z,0.43
2023-04-15T19:41:23.132Z,0.45
2023-04-15T19:43:52.034Z,0.47
2023-04-15T19:46:18.814Z,0.80
2023-04-15T19:48:45.330Z,0.30
2023-04-15T19:51:11.878Z,0.50
2023-04-15T19:53:38.677Z,0.80
2023-04-15T19:56:07.634Z,0.70
2023-04-15T19:58:34.009Z,0.43
2023-04-15T20:01:05.346Z,0.50
2023-04-15T20:03:34.938Z,0.80
2023-04-15T20:06:01.389Z,0.40
2023-04-15T20:08:30.862Z,0.47
2023-04-15T20:10:57.253Z,0.68
2023-04-15T20:13:23.672Z,1.92
2023-04-15T20:15:52.807Z,0.37
2023-04-15T20:18:22.104Z,0.47
2023-04-15T20:20:48.543Z,0.25
2023-04-15T20:23:17.415Z,0.32
2023-04-15T20:25:46.879Z,0.40
2023-04-15T20:28:13.330Z,0.40
2023-04-15T20:30:43.300Z,0.80
2023-04-15T20:33:13.919Z,1.10
2023-04-15T20:35:50.738Z,0.47
2023-04-15T20:38:17.150Z,0.40
2023-04-15T20:40:49.897Z,0.30
2023-04-15T20:43:16.381Z,0.65
2023-04-15T20:45:42.871Z,0.80
2023-04-15T20:48:10.247Z,0.70
2023-04-15T20:50:40.352Z,0.70
2023-04-15T20:53:06.705Z,0.70
2023-04-15T20:55:42.308Z,0.73
2023-04-15T20:58:09.013Z,0.43
2023-04-15T21:00:40.129Z,0.70
2023-04-15T21:03:11.823Z,0.50
2023-04-15T21:05:38.422Z,0.93
2023-04-15T21:08:14.228Z,1.08
2023-04-15T21:10:44.088Z,0.88
2023-04-15T21:13:17.637Z,0.80
2023-04-15T21:15:54.794Z,0.88
2023-04-15T21:18:22.187Z,0.90
2023-04-15T21:20:59.473Z,0.68
2023-04-15T21:23:28.677Z,1.30
2023-04-15T21:25:55.962Z,1.30
2023-04-15T21:28:23.244Z,0.70
2023-04-15T21:30:49.949Z,0.40
2023-04-15T21:33:21.091Z,0.63
2023-04-15T21:35:53.563Z,0.43
2023-04-15T21:38:23.533Z,0.70
2023-04-15T21:40:50.700Z,0.52
2023-04-15T21:43:19.648Z,0.93
2023-04-15T21:46:23.229Z,0.60
2023-04-15T21:48:38.427Z,0.60
2023-04-15T21:51:06.385Z,0.50
2023-04-15T21:53:35.322Z,0.50
2023-04-15T21:56:01.698Z,0.50
2023-04-15T21:58:35.249Z,0.40
2023-04-15T22:01:01.910Z,0.50
2023-04-15T22:03:37.720Z,0.45
2023-04-15T22:06:04.354Z,0.60
2023-04-15T22:08:48.329Z,0.40
2023-04-15T22:11:26.569Z,0.50
2023-04-15T22:13:54.126Z,0.50
2023-04-15T22:16:21.592Z,0.57
2023-04-15T22:18:51.311Z,0.32
2023-04-15T22:21:17.685Z,0.63
2023-04-15T22:23:49.437Z,0.40
2023-04-15T22:26:15.831Z,0.70
2023-04-15T22:28:42.290Z,0.50
2023-04-15T22:31:11.684Z,0.70
2023-04-15T22:33:40.901Z,0.70
2023-04-15T22:36:09.397Z,0.55
2023-04-15T22:38:45.943Z,0.88
2023-04-15T22:41:14.481Z,0.60
2023-04-15T22:43:40.959Z,0.70
2023-04-15T22:46:07.387Z,0.57
2023-04-15T22:48:34.744Z,0.60
2023-04-15T22:51:08.569Z,0.75
2023-04-15T22:53:35.025Z,0.60
2023-04-15T22:56:02.947Z,0.55
2023-04-15T22:58:33.648Z,0.60
2023-04-15T23:01:00.148Z,0.60
2023-04-15T23:03:38.998Z,1.30
2023-04-15T23:06:21.659Z,0.77
2023-04-15T23:08:50.890Z,1.25
2023-04-15T23:11:21.843Z,0.83
2023-04-15T23:13:48.264Z,0.93
2023-04-15T23:16:18.513Z,0.93
2023-04-15T23:18:48.076Z,1.10
2023-04-15T23:21:15.615Z,0.85
2023-04-15T23:23:42.682Z,0.50
2023-04-15T23:26:12.285Z,0.80
2023-04-15T23:28:50.166Z,0.50
2023-04-15T23:31:16.597Z,0.93
2023-04-15T23:33:45.596Z,0.68
2023-04-15T23:36:15.910Z,0.90
2023-04-15T23:38:42.504Z,0.95
2023-04-15T23:41:12.751Z,0.88
2023-04-15T23:43:41.943Z,1.20
2023-04-15T23:46:08.620Z,0.98
2023-04-15T23:48:44.824Z,0.83
2023-04-15T23:51:12.740Z,1.25
2023-04-15T23:53:40.523Z,1.00
2023-04-15T23:56:07.198Z,0.95
2023-04-15T23:58:34.588Z,1.15
